Airfield :
LOGIN :

Register | Disclaimer

   EN    FR    IT 

 










Legend :    VFR   Marginal VFR   IFR   Intensive IFR   Very Intensive IFR
Visi :
Ceiling :
>= 8 km
>= 3000ft
5 to 8 km
1000 to 3000 ft
1500m to 5 km
500 to 1000 ft
800 to 1500m
200 to 500 ft
< 800m
< 200 ft
Symbols :   Thunderstorms  Fog  Heavy snow  Heavy precipitations  Wind > 20 kt
SIGMETs :     Misc.  Thunderstorms  Icing  Turbulence  Mountain Waves  Volcanic Ashes






- Airport Elevation : 2936 ft


LECH - Calamocha

CURRENT METAR :
  • 201500Z AUTO 12011KT 100V160 CAVOK 20/11 Q1010

EXPIRED METARs :
  • 201430Z AUTO 11010KT 070V150 CAVOK 19/11 Q1010
  • 201400Z AUTO 11011KT 070V150 9999 FEW028 20/11 Q1010
  • 201330Z AUTO 10010KT 060V140 9999 FEW035 19/11 Q1010
  • 201300Z AUTO 13012KT 100V160 CAVOK 20/10 Q1010
  • 201230Z AUTO 13010KT 100V160 CAVOK 20/10 Q1010
  • 201200Z AUTO 13010KT 090V180 9999 FEW022 20/12 Q1011
  • 201130Z AUTO 13010KT 080V170 9999 FEW044 SCT050 19/11 Q1011
  • 201100Z AUTO 10012KT 060V140 CAVOK 20/11 Q1010
  • 201030Z AUTO 11010KT 070V150 9999 FEW043 SCT055 20/10 Q1010

Expired Forecast.



MET'MAP, your aeronautical weather chart ! - Copyright ORBIFLY December 2007 - Disclaimer

ORBIFLY MET'MAP TEAM :

Programming & Development : Alexandra Zaïnal
Original concept : Baudouin d'Aumeries
Technical & hardware support : Manuel Goepfert
Assistance : Marc-Olivier Méhu




SOURCES & CREDITS :

   NOAA